createdAt,value
2023-07-16T00:00:22.470Z,41.96
2023-07-16T00:05:31.508Z,42.15
2023-07-16T00:10:39.239Z,42.32
2023-07-16T00:15:46.705Z,42.46
2023-07-16T00:20:52.303Z,42.57
2023-07-16T00:25:59.403Z,42.84
2023-07-16T00:31:06.657Z,42.97
2023-07-16T00:36:12.265Z,43.04
2023-07-16T00:41:19.420Z,43.25
2023-07-16T00:46:27.838Z,43.38
2023-07-16T00:51:35.050Z,43.47
2023-07-16T00:56:42.368Z,43.72
2023-07-16T01:01:49.772Z,43.87
2023-07-16T01:06:58.015Z,44.12
2023-07-16T01:12:07.310Z,44.32
2023-07-16T01:17:14.485Z,44.47
2023-07-16T01:22:43.560Z,44.55
2023-07-16T01:28:25.312Z,44.72
2023-07-16T01:33:34.242Z,44.97
2023-07-16T01:38:41.657Z,45.18
2023-07-16T01:43:48.882Z,45.28
2023-07-16T01:48:56.082Z,45.49
2023-07-16T01:54:03.141Z,45.75
2023-07-16T01:59:11.826Z,46.05
2023-07-16T02:04:19.018Z,46.07
2023-07-16T02:09:26.584Z,46.38
2023-07-16T02:14:33.831Z,46.67
2023-07-16T02:19:39.515Z,46.82
2023-07-16T02:24:46.947Z,47.11
2023-07-16T02:29:54.341Z,47.29
2023-07-16T02:35:01.490Z,47.46
2023-07-16T02:40:12.769Z,47.57
2023-07-16T02:45:23.588Z,47.68
2023-07-16T02:50:30.763Z,47.72
2023-07-16T02:55:38.369Z,48.03
2023-07-16T03:00:45.599Z,48.39
2023-07-16T03:05:52.774Z,48.43
2023-07-16T03:10:59.795Z,48.57
2023-07-16T03:16:06.015Z,48.75
2023-07-16T03:21:13.133Z,49.05
2023-07-16T03:26:20.251Z,49.20
2023-07-16T03:31:29.728Z,49.42
2023-07-16T03:36:37.730Z,49.54
2023-07-16T03:41:45.013Z,49.79
2023-07-16T03:46:52.602Z,49.99
2023-07-16T03:51:59.909Z,50.13
2023-07-16T03:57:08.776Z,50.01
2023-07-16T04:02:16.066Z,49.74
2023-07-16T04:07:23.347Z,49.57
2023-07-16T04:12:28.904Z,49.47
2023-07-16T04:17:36.324Z,49.23
2023-07-16T04:22:43.516Z,49.06
2023-07-16T04:27:48.977Z,49.21
2023-07-16T04:32:56.261Z,49.34
2023-07-16T04:38:03.527Z,49.70
2023-07-16T04:43:09.101Z,49.96
2023-07-16T04:48:16.260Z,50.23
2023-07-16T04:53:24.193Z,50.47
2023-07-16T04:58:31.401Z,50.65
2023-07-16T05:03:36.941Z,50.88
2023-07-16T05:08:45.500Z,51.07
2023-07-16T05:13:53.988Z,50.72
2023-07-16T05:19:01.062Z,50.07
2023-07-16T05:24:08.740Z,49.52
2023-07-16T05:29:15.817Z,49.20
2023-07-16T05:34:22.974Z,48.56
2023-07-16T05:39:30.093Z,48.15
2023-07-16T05:44:38.311Z,47.60
2023-07-16T05:49:46.101Z,47.01
2023-07-16T05:54:53.337Z,46.36
2023-07-16T06:00:00.591Z,46.08
2023-07-16T06:05:09.035Z,45.64
2023-07-16T06:10:16.709Z,45.05
2023-07-16T06:15:24.396Z,44.43
2023-07-16T06:20:31.579Z,44.17
2023-07-16T06:25:38.901Z,43.51
2023-07-16T06:30:46.026Z,42.95
2023-07-16T06:35:53.397Z,42.55
2023-07-16T06:41:00.807Z,41.95
2023-07-16T06:46:08.060Z,41.76
2023-07-16T06:51:15.169Z,41.51
2023-07-16T06:56:22.370Z,40.92
2023-07-16T07:01:30.220Z,40.30
2023-07-16T07:06:37.336Z,39.96
2023-07-16T07:11:44.506Z,39.51
2023-07-16T07:16:51.613Z,39.24
2023-07-16T07:21:58.982Z,38.77
2023-07-16T07:27:07.147Z,38.16
2023-07-16T07:32:14.601Z,37.84
2023-07-16T07:37:22.038Z,37.61
2023-07-16T07:42:31.146Z,37.17
2023-07-16T07:47:38.522Z,36.87
2023-07-16T07:52:45.686Z,36.76
2023-07-16T07:57:52.918Z,36.19
2023-07-16T08:03:02.994Z,35.86
2023-07-16T08:08:10.310Z,35.23
2023-07-16T08:13:17.511Z,35.00
2023-07-16T08:18:24.879Z,34.83
2023-07-16T08:23:32.583Z,34.71
2023-07-16T08:28:41.237Z,34.47
2023-07-16T08:33:50.768Z,34.52
2023-07-16T08:38:57.914Z,34.65
2023-07-16T08:44:05.175Z,34.56
2023-07-16T08:49:13.488Z,34.46
2023-07-16T08:54:21.230Z,34.68
2023-07-16T08:59:28.903Z,34.80
2023-07-16T09:04:36.857Z,34.90
2023-07-16T09:09:44.050Z,34.57
2023-07-16T09:14:52.016Z,34.36
2023-07-16T09:19:59.196Z,34.41
2023-07-16T09:25:06.815Z,34.54
2023-07-16T09:30:19.060Z,34.79
2023-07-16T09:35:26.447Z,34.62
2023-07-16T09:40:34.065Z,34.85
2023-07-16T09:45:41.652Z,34.79
2023-07-16T09:50:55.271Z,35.08
2023-07-16T09:56:06.699Z,35.34
2023-07-16T10:01:14.528Z,35.84
2023-07-16T10:06:21.986Z,36.28
2023-07-16T10:11:29.255Z,36.85
2023-07-16T10:16:41.463Z,37.51
2023-07-16T10:21:49.483Z,37.94
2023-07-16T10:26:56.639Z,38.50
2023-07-16T10:32:04.308Z,39.13
2023-07-16T10:37:11.545Z,39.66
2023-07-16T10:42:19.600Z,40.29
2023-07-16T10:47:31.803Z,40.99
2023-07-16T10:52:39.884Z,41.80
2023-07-16T10:57:47.304Z,42.48
2023-07-16T11:02:55.539Z,43.40
2023-07-16T11:08:02.953Z,44.21
2023-07-16T11:13:10.131Z,45.07
2023-07-16T11:18:17.428Z,45.52
2023-07-16T11:23:25.540Z,45.95
2023-07-16T11:28:40.902Z,46.38
2023-07-16T11:33:48.649Z,46.67
2023-07-16T11:38:56.208Z,46.85
2023-07-16T11:44:05.050Z,47.29
2023-07-16T11:49:12.168Z,47.41
2023-07-16T11:54:19.566Z,47.72
2023-07-16T11:59:26.867Z,47.73
2023-07-16T12:04:34.057Z,47.52
2023-07-16T12:09:41.734Z,47.09
2023-07-16T12:14:48.858Z,47.00
2023-07-16T12:20:11.320Z,47.05
2023-07-16T12:25:21.207Z,46.84
2023-07-16T12:30:28.439Z,46.80
2023-07-16T12:35:35.721Z,46.64
2023-07-16T12:40:43.059Z,46.58
2023-07-16T12:45:50.263Z,46.61
2023-07-16T12:50:58.135Z,46.76
2023-07-16T12:56:05.294Z,46.67
2023-07-16T13:01:12.623Z,46.40
2023-07-16T13:06:20.058Z,46.34
2023-07-16T13:11:28.112Z,46.13
2023-07-16T13:16:35.358Z,45.78
2023-07-16T13:21:42.598Z,45.74
2023-07-16T13:26:49.762Z,45.60
2023-07-16T13:31:57.457Z,45.53
2023-07-16T13:37:05.018Z,45.52
2023-07-16T13:42:22.507Z,45.31
2023-07-16T13:47:30.826Z,45.07
2023-07-16T13:52:38.849Z,44.93
2023-07-16T13:57:47.007Z,44.75
2023-07-16T14:02:55.767Z,44.66
2023-07-16T14:08:03.079Z,44.62
2023-07-16T14:13:10.383Z,44.75
2023-07-16T14:18:17.657Z,44.50
2023-07-16T14:23:25.079Z,44.39
2023-07-16T14:28:32.467Z,44.31
2023-07-16T14:33:41.019Z,44.17
2023-07-16T14:38:48.252Z,43.84
2023-07-16T14:43:57.657Z,43.85
2023-07-16T14:49:12.321Z,43.89
2023-07-16T14:54:22.139Z,44.19
2023-07-16T14:59:29.330Z,44.22
2023-07-16T15:04:39.618Z,44.20
2023-07-16T15:10:00.272Z,44.05
2023-07-16T15:15:09.377Z,44.09
2023-07-16T15:20:21.521Z,43.99
2023-07-16T15:25:29.450Z,43.96
2023-07-16T15:30:36.994Z,43.76
2023-07-16T15:35:47.226Z,43.85
2023-07-16T15:40:58.136Z,43.97
2023-07-16T15:46:05.921Z,43.99
2023-07-16T15:51:13.266Z,43.96
2023-07-16T15:56:20.374Z,43.90
2023-07-16T16:01:28.424Z,43.88
2023-07-16T16:06:36.985Z,44.00
2023-07-16T16:11:46.590Z,43.77
2023-07-16T16:17:06.325Z,43.68
2023-07-16T16:22:14.511Z,43.33
2023-07-16T16:27:21.722Z,43.35
2023-07-16T16:32:28.976Z,43.22
2023-07-16T16:37:36.184Z,43.13
2023-07-16T16:42:45.142Z,43.15
2023-07-16T16:47:52.995Z,43.07
2023-07-16T16:53:00.719Z,42.81
2023-07-16T16:58:09.316Z,42.65
2023-07-16T17:03:16.716Z,42.32
2023-07-16T17:08:23.920Z,42.14
2023-07-16T17:13:35.260Z,42.08
2023-07-16T17:18:44.430Z,41.94
2023-07-16T17:23:51.760Z,41.68
2023-07-16T17:28:59.059Z,41.61
2023-07-16T17:34:06.782Z,41.28
2023-07-16T17:39:15.120Z,41.09
2023-07-16T17:44:22.484Z,41.08
2023-07-16T17:49:30.035Z,40.81
2023-07-16T17:54:37.288Z,40.77
2023-07-16T17:59:45.334Z,40.54
2023-07-16T18:04:54.526Z,40.59
2023-07-16T18:10:03.935Z,40.62
2023-07-16T18:15:13.361Z,40.55
2023-07-16T18:20:21.050Z,40.55
2023-07-16T18:25:28.815Z,40.49
2023-07-16T18:30:36.122Z,40.54
2023-07-16T18:35:46.795Z,40.55
2023-07-16T18:40:54.044Z,40.67
2023-07-16T18:46:01.307Z,40.65
2023-07-16T18:51:08.737Z,40.61
2023-07-16T18:56:16.380Z,40.66
2023-07-16T19:01:23.711Z,40.84
2023-07-16T19:06:31.093Z,40.94
2023-07-16T19:11:38.962Z,41.05
2023-07-16T19:16:46.367Z,41.17
2023-07-16T19:21:53.752Z,41.27
2023-07-16T19:27:01.176Z,41.47
2023-07-16T19:32:09.964Z,41.69
2023-07-16T19:37:17.266Z,41.88
2023-07-16T19:42:25.816Z,42.19
2023-07-16T19:47:35.098Z,42.48
2023-07-16T19:52:42.507Z,42.85
2023-07-16T19:57:50.065Z,43.09
2023-07-16T20:02:57.291Z,43.37
2023-07-16T20:08:07.021Z,43.80
2023-07-16T20:13:14.196Z,44.12
2023-07-16T20:18:21.706Z,44.36
2023-07-16T20:23:29.483Z,44.46
2023-07-16T20:28:36.824Z,44.77
2023-07-16T20:33:44.065Z,45.14
2023-07-16T20:38:51.238Z,45.45
2023-07-16T20:43:58.650Z,45.69
2023-07-16T20:49:05.982Z,46.06
2023-07-16T20:54:13.281Z,46.29
2023-07-16T20:59:18.910Z,46.72
2023-07-16T21:04:26.105Z,47.06
2023-07-16T21:09:31.668Z,47.43
2023-07-16T21:14:38.849Z,47.81
2023-07-16T21:19:44.525Z,48.15
2023-07-16T21:24:51.840Z,48.54
2023-07-16T21:29:57.896Z,49.20
2023-07-16T21:35:06.184Z,49.74
2023-07-16T21:40:14.047Z,49.83
2023-07-16T21:45:21.581Z,49.81
2023-07-16T21:50:29.250Z,50.13
2023-07-16T21:55:36.279Z,50.28
2023-07-16T22:00:43.395Z,50.59
2023-07-16T22:05:50.563Z,50.84
2023-07-16T22:10:57.710Z,51.47
2023-07-16T22:16:05.249Z,51.97
2023-07-16T22:21:12.754Z,52.45
2023-07-16T22:26:19.272Z,52.82
2023-07-16T22:31:27.158Z,53.26
2023-07-16T22:36:34.324Z,53.45
2023-07-16T22:41:41.834Z,53.51
2023-07-16T22:46:47.400Z,53.74
2023-07-16T22:51:54.617Z,54.14
2023-07-16T22:57:01.892Z,54.22
2023-07-16T23:02:09.216Z,54.39
2023-07-16T23:07:16.362Z,54.52
2023-07-16T23:12:24.070Z,54.63
2023-07-16T23:17:31.153Z,54.74
2023-07-16T23:22:39.164Z,54.89
2023-07-16T23:27:46.452Z,55.23
2023-07-16T23:32:53.526Z,55.48
2023-07-16T23:38:02.015Z,55.60
2023-07-16T23:43:09.139Z,55.74
2023-07-16T23:48:16.563Z,55.94
2023-07-16T23:53:22.207Z,56.27
2023-07-16T23:58:29.305Z,56.32
